sensor_id;sensor_type;location;lat;lon;timestamp;P1;durP1;ratioP1;P2;durP2;ratioP2
2396;SDS011;1209;48.410;9.054;2023-04-03T00:01:16;4.47;;;4.07;;
2396;SDS011;1209;48.410;9.054;2023-04-03T00:03:42;5.83;;;3.70;;
2396;SDS011;1209;48.410;9.054;2023-04-03T00:06:08;4.30;;;3.57;;
2396;SDS011;1209;48.410;9.054;2023-04-03T00:08:36;4.15;;;3.40;;
2396;SDS011;1209;48.410;9.054;2023-04-03T00:11:02;4.10;;;3.70;;
2396;SDS011;1209;48.410;9.054;2023-04-03T00:13:28;7.15;;;3.85;;
2396;SDS011;1209;48.410;9.054;2023-04-03T00:15:54;4.30;;;3.60;;
2396;SDS011;1209;48.410;9.054;2023-04-03T00:18:20;3.70;;;3.40;;
2396;SDS011;1209;48.410;9.054;2023-04-03T00:20:45;3.37;;;3.00;;
2396;SDS011;1209;48.410;9.054;2023-04-03T00:23:10;4.20;;;3.57;;
2396;SDS011;1209;48.410;9.054;2023-04-03T00:25:36;5.90;;;4.33;;
2396;SDS011;1209;48.410;9.054;2023-04-03T00:28:01;3.70;;;3.40;;
2396;SDS011;1209;48.410;9.054;2023-04-03T00:30:27;4.10;;;3.70;;
2396;SDS011;1209;48.410;9.054;2023-04-03T00:32:53;8.07;;;3.10;;
2396;SDS011;1209;48.410;9.054;2023-04-03T00:35:19;3.63;;;3.33;;
2396;SDS011;1209;48.410;9.054;2023-04-03T00:37:46;4.95;;;3.67;;
2396;SDS011;1209;48.410;9.054;2023-04-03T00:40:12;3.80;;;3.53;;
2396;SDS011;1209;48.410;9.054;2023-04-03T00:42:43;4.38;;;3.17;;
2396;SDS011;1209;48.410;9.054;2023-04-03T00:47:35;3.53;;;3.23;;
2396;SDS011;1209;48.410;9.054;2023-04-03T00:50:03;3.05;;;2.72;;
2396;SDS011;1209;48.410;9.054;2023-04-03T00:52:29;3.90;;;3.57;;
2396;SDS011;1209;48.410;9.054;2023-04-03T00:54:57;3.90;;;3.20;;
2396;SDS011;1209;48.410;9.054;2023-04-03T00:57:26;4.68;;;3.90;;
2396;SDS011;1209;48.410;9.054;2023-04-03T00:59:54;3.53;;;3.23;;
2396;SDS011;1209;48.410;9.054;2023-04-03T01:02:22;5.50;;;4.15;;
2396;SDS011;1209;48.410;9.054;2023-04-03T01:04:48;3.50;;;3.20;;
2396;SDS011;1209;48.410;9.054;2023-04-03T01:07:17;4.27;;;3.87;;
2396;SDS011;1209;48.410;9.054;2023-04-03T01:09:47;5.75;;;3.65;;
2396;SDS011;1209;48.410;9.054;2023-04-03T01:12:20;3.40;;;3.10;;
2396;SDS011;1209;48.410;9.054;2023-04-03T01:14:49;4.88;;;4.18;;
2396;SDS011;1209;48.410;9.054;2023-04-03T01:22:59;3.80;;;3.45;;
2396;SDS011;1209;48.410;9.054;2023-04-03T01:25:44;3.47;;;3.17;;
2396;SDS011;1209;48.410;9.054;2023-04-03T01:28:45;3.35;;;3.10;;
2396;SDS011;1209;48.410;9.054;2023-04-03T01:33:53;4.13;;;3.72;;
2396;SDS011;1209;48.410;9.054;2023-04-03T01:36:20;4.38;;;3.53;;
2396;SDS011;1209;48.410;9.054;2023-04-03T01:38:51;6.38;;;3.05;;
2396;SDS011;1209;48.410;9.054;2023-04-03T01:41:18;3.85;;;3.55;;
2396;SDS011;1209;48.410;9.054;2023-04-03T01:43:45;4.22;;;3.25;;
2396;SDS011;1209;48.410;9.054;2023-04-03T01:46:11;4.03;;;3.63;;
2396;SDS011;1209;48.410;9.054;2023-04-03T01:48:36;4.40;;;4.00;;
2396;SDS011;1209;48.410;9.054;2023-04-03T01:51:01;4.90;;;4.40;;
2396;SDS011;1209;48.410;9.054;2023-04-03T01:53:27;7.70;;;4.47;;
2396;SDS011;1209;48.410;9.054;2023-04-03T01:55:52;5.57;;;4.77;;
2396;SDS011;1209;48.410;9.054;2023-04-03T01:58:17;6.00;;;3.60;;
2396;SDS011;1209;48.410;9.054;2023-04-03T02:00:43;3.67;;;3.40;;
2396;SDS011;1209;48.410;9.054;2023-04-03T02:03:08;4.20;;;3.53;;
2396;SDS011;1209;48.410;9.054;2023-04-03T02:05:34;5.67;;;4.23;;
2396;SDS011;1209;48.410;9.054;2023-04-03T02:07:59;4.80;;;3.80;;
2396;SDS011;1209;48.410;9.054;2023-04-03T02:10:25;5.27;;;4.23;;
2396;SDS011;1209;48.410;9.054;2023-04-03T02:12:50;5.53;;;4.07;;
2396;SDS011;1209;48.410;9.054;2023-04-03T02:15:16;5.00;;;3.77;;
2396;SDS011;1209;48.410;9.054;2023-04-03T02:17:42;3.10;;;2.90;;
2396;SDS011;1209;48.410;9.054;2023-04-03T02:20:07;4.27;;;3.87;;
2396;SDS011;1209;48.410;9.054;2023-04-03T02:22:33;4.07;;;3.43;;
2396;SDS011;1209;48.410;9.054;2023-04-03T02:24:58;4.10;;;3.80;;
2396;SDS011;1209;48.410;9.054;2023-04-03T02:27:24;4.70;;;3.77;;
2396;SDS011;1209;48.410;9.054;2023-04-03T02:29:49;3.57;;;3.17;;
2396;SDS011;1209;48.410;9.054;2023-04-03T02:32:14;3.87;;;3.23;;
2396;SDS011;1209;48.410;9.054;2023-04-03T02:34:40;4.03;;;3.37;;
2396;SDS011;1209;48.410;9.054;2023-04-03T02:37:05;4.27;;;3.80;;
2396;SDS011;1209;48.410;9.054;2023-04-03T02:39:31;6.40;;;3.67;;
2396;SDS011;1209;48.410;9.054;2023-04-03T02:41:56;3.50;;;3.30;;
2396;SDS011;1209;48.410;9.054;2023-04-03T02:44:21;3.77;;;3.37;;
2396;SDS011;1209;48.410;9.054;2023-04-03T02:46:48;4.45;;;4.05;;
2396;SDS011;1209;48.410;9.054;2023-04-03T02:49:14;4.53;;;3.60;;
2396;SDS011;1209;48.410;9.054;2023-04-03T02:51:40;7.47;;;3.92;;
2396;SDS011;1209;48.410;9.054;2023-04-03T02:54:06;4.83;;;3.70;;
2396;SDS011;1209;48.410;9.054;2023-04-03T02:56:31;4.97;;;3.57;;
2396;SDS011;1209;48.410;9.054;2023-04-03T02:58:56;4.83;;;4.30;;
2396;SDS011;1209;48.410;9.054;2023-04-03T03:01:22;5.17;;;4.13;;
2396;SDS011;1209;48.410;9.054;2023-04-03T03:03:47;3.77;;;3.40;;
2396;SDS011;1209;48.410;9.054;2023-04-03T03:06:14;4.13;;;3.73;;
2396;SDS011;1209;48.410;9.054;2023-04-03T03:08:41;4.80;;;4.30;;
2396;SDS011;1209;48.410;9.054;2023-04-03T03:11:07;4.05;;;3.63;;
2396;SDS011;1209;48.410;9.054;2023-04-03T03:13:33;3.67;;;3.10;;
2396;SDS011;1209;48.410;9.054;2023-04-03T03:15:59;4.10;;;3.60;;
2396;SDS011;1209;48.410;9.054;2023-04-03T03:18:25;4.18;;;3.33;;
2396;SDS011;1209;48.410;9.054;2023-04-03T03:20:51;3.47;;;3.17;;
2396;SDS011;1209;48.410;9.054;2023-04-03T03:23:18;5.47;;;3.70;;
2396;SDS011;1209;48.410;9.054;2023-04-03T03:25:43;4.07;;;3.67;;
2396;SDS011;1209;48.410;9.054;2023-04-03T03:28:08;4.50;;;4.10;;
2396;SDS011;1209;48.410;9.054;2023-04-03T03:30:33;4.00;;;3.70;;
2396;SDS011;1209;48.410;9.054;2023-04-03T03:33:00;4.28;;;3.70;;
2396;SDS011;1209;48.410;9.054;2023-04-03T03:35:25;4.30;;;3.60;;
2396;SDS011;1209;48.410;9.054;2023-04-03T03:37:50;4.27;;;3.27;;
2396;SDS011;1209;48.410;9.054;2023-04-03T03:40:16;6.33;;;3.83;;
2396;SDS011;1209;48.410;9.054;2023-04-03T03:42:41;4.63;;;4.13;;
2396;SDS011;1209;48.410;9.054;2023-04-03T03:45:07;3.80;;;3.47;;
2396;SDS011;1209;48.410;9.054;2023-04-03T03:47:33;6.97;;;4.30;;
2396;SDS011;1209;48.410;9.054;2023-04-03T03:49:58;3.70;;;3.40;;
2396;SDS011;1209;48.410;9.054;2023-04-03T03:52:24;4.53;;;3.77;;
2396;SDS011;1209;48.410;9.054;2023-04-03T03:54:50;3.35;;;3.15;;
2396;SDS011;1209;48.410;9.054;2023-04-03T03:57:15;4.20;;;3.60;;
2396;SDS011;1209;48.410;9.054;2023-04-03T03:59:41;3.63;;;3.33;;
2396;SDS011;1209;48.410;9.054;2023-04-03T04:02:06;3.17;;;2.97;;
2396;SDS011;1209;48.410;9.054;2023-04-03T04:04:32;3.63;;;3.33;;
2396;SDS011;1209;48.410;9.054;2023-04-03T04:06:57;4.53;;;4.00;;
2396;SDS011;1209;48.410;9.054;2023-04-03T04:09:22;5.90;;;4.30;;
2396;SDS011;1209;48.410;9.054;2023-04-03T04:11:48;6.77;;;4.30;;
2396;SDS011;1209;48.410;9.054;2023-04-03T04:14:13;3.93;;;3.40;;
2396;SDS011;1209;48.410;9.054;2023-04-03T04:16:38;5.50;;;3.87;;
2396;SDS011;1209;48.410;9.054;2023-04-03T04:19:04;5.03;;;4.53;;
2396;SDS011;1209;48.410;9.054;2023-04-03T04:21:29;4.60;;;3.73;;
2396;SDS011;1209;48.410;9.054;2023-04-03T04:23:55;4.30;;;3.70;;
2396;SDS011;1209;48.410;9.054;2023-04-03T04:26:20;4.60;;;4.10;;
2396;SDS011;1209;48.410;9.054;2023-04-03T04:28:45;3.37;;;3.17;;
2396;SDS011;1209;48.410;9.054;2023-04-03T04:31:11;5.13;;;4.20;;
2396;SDS011;1209;48.410;9.054;2023-04-03T04:33:36;4.20;;;3.53;;
2396;SDS011;1209;48.410;9.054;2023-04-03T04:36:01;5.23;;;3.83;;
2396;SDS011;1209;48.410;9.054;2023-04-03T04:38:26;3.83;;;3.30;;
2396;SDS011;1209;48.410;9.054;2023-04-03T04:40:52;7.20;;;4.53;;
2396;SDS011;1209;48.410;9.054;2023-04-03T04:43:17;5.30;;;4.80;;
2396;SDS011;1209;48.410;9.054;2023-04-03T04:45:43;4.37;;;3.77;;
2396;SDS011;1209;48.410;9.054;2023-04-03T04:48:08;7.10;;;5.00;;
2396;SDS011;1209;48.410;9.054;2023-04-03T04:50:33;5.83;;;3.80;;
2396;SDS011;1209;48.410;9.054;2023-04-03T04:52:59;4.00;;;3.70;;
2396;SDS011;1209;48.410;9.054;2023-04-03T04:55:24;3.33;;;3.13;;
2396;SDS011;1209;48.410;9.054;2023-04-03T04:57:50;6.30;;;3.77;;
2396;SDS011;1209;48.410;9.054;2023-04-03T05:00:15;3.33;;;3.00;;
2396;SDS011;1209;48.410;9.054;2023-04-03T05:02:41;4.17;;;3.73;;
2396;SDS011;1209;48.410;9.054;2023-04-03T05:05:06;4.63;;;3.77;;
2396;SDS011;1209;48.410;9.054;2023-04-03T05:07:32;4.57;;;4.00;;
2396;SDS011;1209;48.410;9.054;2023-04-03T05:09:57;5.70;;;3.83;;
2396;SDS011;1209;48.410;9.054;2023-04-03T05:12:23;3.77;;;3.40;;
2396;SDS011;1209;48.410;9.054;2023-04-03T05:14:48;4.33;;;3.93;;
2396;SDS011;1209;48.410;9.054;2023-04-03T05:17:13;4.20;;;3.80;;
2396;SDS011;1209;48.410;9.054;2023-04-03T05:19:39;3.80;;;3.50;;
2396;SDS011;1209;48.410;9.054;2023-04-03T05:22:04;4.20;;;3.80;;
2396;SDS011;1209;48.410;9.054;2023-04-03T05:24:29;6.43;;;4.40;;
2396;SDS011;1209;48.410;9.054;2023-04-03T05:26:55;4.40;;;4.00;;
2396;SDS011;1209;48.410;9.054;2023-04-03T05:29:20;5.93;;;4.03;;
2396;SDS011;1209;48.410;9.054;2023-04-03T05:31:46;4.93;;;4.10;;
2396;SDS011;1209;48.410;9.054;2023-04-03T05:34:13;6.22;;;3.88;;
2396;SDS011;1209;48.410;9.054;2023-04-03T05:36:38;5.80;;;4.00;;
2396;SDS011;1209;48.410;9.054;2023-04-03T05:39:04;6.03;;;4.30;;
2396;SDS011;1209;48.410;9.054;2023-04-03T05:41:29;4.60;;;4.00;;
2396;SDS011;1209;48.410;9.054;2023-04-03T05:43:54;5.20;;;3.57;;
2396;SDS011;1209;48.410;9.054;2023-04-03T05:46:20;5.97;;;3.87;;
2396;SDS011;1209;48.410;9.054;2023-04-03T05:48:46;3.97;;;3.60;;
2396;SDS011;1209;48.410;9.054;2023-04-03T05:51:15;4.90;;;3.97;;
2396;SDS011;1209;48.410;9.054;2023-04-03T05:53:42;6.10;;;4.38;;
2396;SDS011;1209;48.410;9.054;2023-04-03T05:56:09;4.22;;;3.42;;
2396;SDS011;1209;48.410;9.054;2023-04-03T05:58:35;4.23;;;3.77;;
2396;SDS011;1209;48.410;9.054;2023-04-03T06:01:00;4.40;;;4.00;;
2396;SDS011;1209;48.410;9.054;2023-04-03T06:03:26;3.47;;;2.83;;
2396;SDS011;1209;48.410;9.054;2023-04-03T06:05:51;4.17;;;3.50;;
2396;SDS011;1209;48.410;9.054;2023-04-03T06:08:17;3.77;;;3.47;;
2396;SDS011;1209;48.410;9.054;2023-04-03T06:10:42;4.93;;;3.50;;
2396;SDS011;1209;48.410;9.054;2023-04-03T06:13:07;7.20;;;4.10;;
2396;SDS011;1209;48.410;9.054;2023-04-03T06:15:33;3.80;;;3.40;;
2396;SDS011;1209;48.410;9.054;2023-04-03T06:17:59;3.70;;;3.40;;
2396;SDS011;1209;48.410;9.054;2023-04-03T06:20:24;3.77;;;3.07;;
2396;SDS011;1209;48.410;9.054;2023-04-03T06:22:50;4.57;;;2.87;;
2396;SDS011;1209;48.410;9.054;2023-04-03T06:25:15;4.63;;;2.67;;
2396;SDS011;1209;48.410;9.054;2023-04-03T06:27:42;6.75;;;2.60;;
2396;SDS011;1209;48.410;9.054;2023-04-03T06:30:07;5.43;;;3.93;;
2396;SDS011;1209;48.410;9.054;2023-04-03T06:32:33;2.70;;;2.50;;
2396;SDS011;1209;48.410;9.054;2023-04-03T06:34:58;3.00;;;2.70;;
2396;SDS011;1209;48.410;9.054;2023-04-03T06:37:24;2.40;;;2.30;;
2396;SDS011;1209;48.410;9.054;2023-04-03T06:39:54;4.15;;;2.00;;
2396;SDS011;1209;48.410;9.054;2023-04-03T06:42:19;2.40;;;2.30;;
2396;SDS011;1209;48.410;9.054;2023-04-03T06:44:45;2.03;;;1.85;;
2396;SDS011;1209;48.410;9.054;2023-04-03T06:47:11;1.77;;;1.67;;
2396;SDS011;1209;48.410;9.054;2023-04-03T06:49:38;2.70;;;2.35;;
2396;SDS011;1209;48.410;9.054;2023-04-03T06:52:04;2.33;;;2.23;;
2396;SDS011;1209;48.410;9.054;2023-04-03T06:54:30;2.00;;;1.90;;
2396;SDS011;1209;48.410;9.054;2023-04-03T06:56:56;10.70;;;5.20;;
2396;SDS011;1209;48.410;9.054;2023-04-03T06:59:21;6.33;;;3.83;;
2396;SDS011;1209;48.410;9.054;2023-04-03T07:01:47;2.13;;;2.03;;
2396;SDS011;1209;48.410;9.054;2023-04-03T07:04:12;1.83;;;1.73;;
2396;SDS011;1209;48.410;9.054;2023-04-03T07:06:37;3.50;;;3.20;;
2396;SDS011;1209;48.410;9.054;2023-04-03T07:09:03;2.73;;;2.27;;
2396;SDS011;1209;48.410;9.054;2023-04-03T07:11:28;1.90;;;1.80;;
2396;SDS011;1209;48.410;9.054;2023-04-03T07:13:54;3.50;;;2.43;;
2396;SDS011;1209;48.410;9.054;2023-04-03T07:16:19;2.70;;;2.47;;
2396;SDS011;1209;48.410;9.054;2023-04-03T07:18:46;3.10;;;2.80;;
2396;SDS011;1209;48.410;9.054;2023-04-03T07:21:11;3.47;;;3.00;;
2396;SDS011;1209;48.410;9.054;2023-04-03T07:23:37;2.90;;;2.70;;
2396;SDS011;1209;48.410;9.054;2023-04-03T07:26:03;3.13;;;2.83;;
2396;SDS011;1209;48.410;9.054;2023-04-03T07:28:28;4.50;;;3.80;;
2396;SDS011;1209;48.410;9.054;2023-04-03T07:30:59;3.40;;;3.07;;
2396;SDS011;1209;48.410;9.054;2023-04-03T07:33:30;2.80;;;2.60;;
2396;SDS011;1209;48.410;9.054;2023-04-03T07:35:56;3.70;;;3.40;;
2396;SDS011;1209;48.410;9.054;2023-04-03T07:38:21;3.03;;;2.80;;
2396;SDS011;1209;48.410;9.054;2023-04-03T07:40:47;2.93;;;2.63;;
2396;SDS011;1209;48.410;9.054;2023-04-03T07:43:14;3.80;;;3.38;;
2396;SDS011;1209;48.410;9.054;2023-04-03T07:45:41;4.28;;;3.83;;
2396;SDS011;1209;48.410;9.054;2023-04-03T07:48:06;3.77;;;3.00;;
2396;SDS011;1209;48.410;9.054;2023-04-03T07:50:32;3.10;;;2.90;;
2396;SDS011;1209;48.410;9.054;2023-04-03T07:52:57;3.97;;;3.50;;
2396;SDS011;1209;48.410;9.054;2023-04-03T07:55:23;3.23;;;2.93;;
2396;SDS011;1209;48.410;9.054;2023-04-03T07:57:50;3.95;;;3.60;;
2396;SDS011;1209;48.410;9.054;2023-04-03T08:00:15;5.00;;;3.77;;
2396;SDS011;1209;48.410;9.054;2023-04-03T08:02:42;3.33;;;2.80;;
2396;SDS011;1209;48.410;9.054;2023-04-03T08:05:09;2.50;;;2.30;;
2396;SDS011;1209;48.410;9.054;2023-04-03T08:07:36;3.03;;;2.72;;
2396;SDS011;1209;48.410;9.054;2023-04-03T08:10:02;3.25;;;2.95;;
2396;SDS011;1209;48.410;9.054;2023-04-03T08:12:28;2.90;;;2.70;;
2396;SDS011;1209;48.410;9.054;2023-04-03T08:14:54;3.38;;;2.90;;
2396;SDS011;1209;48.410;9.054;2023-04-03T08:17:20;2.47;;;2.33;;
2396;SDS011;1209;48.410;9.054;2023-04-03T08:19:46;2.60;;;2.40;;
2396;SDS011;1209;48.410;9.054;2023-04-03T08:22:12;3.53;;;3.23;;
2396;SDS011;1209;48.410;9.054;2023-04-03T08:24:37;2.37;;;2.27;;
2396;SDS011;1209;48.410;9.054;2023-04-03T08:27:02;2.67;;;2.47;;
2396;SDS011;1209;48.410;9.054;2023-04-03T08:29:28;4.10;;;2.83;;
2396;SDS011;1209;48.410;9.054;2023-04-03T08:31:53;5.17;;;3.30;;
2396;SDS011;1209;48.410;9.054;2023-04-03T08:34:19;3.53;;;2.70;;
2396;SDS011;1209;48.410;9.054;2023-04-03T08:36:45;4.15;;;3.13;;
2396;SDS011;1209;48.410;9.054;2023-04-03T08:39:11;2.30;;;2.20;;
2396;SDS011;1209;48.410;9.054;2023-04-03T08:41:43;3.30;;;3.00;;
2396;SDS011;1209;48.410;9.054;2023-04-03T08:49:47;5.07;;;3.55;;
2396;SDS011;1209;48.410;9.054;2023-04-03T08:52:17;2.92;;;2.70;;
2396;SDS011;1209;48.410;9.054;2023-04-03T08:57:15;4.22;;;3.00;;
2396;SDS011;1209;48.410;9.054;2023-04-03T08:59:45;3.85;;;3.08;;
2396;SDS011;1209;48.410;9.054;2023-04-03T09:02:21;3.67;;;3.27;;
2396;SDS011;1209;48.410;9.054;2023-04-03T09:04:57;2.63;;;2.42;;
2396;SDS011;1209;48.410;9.054;2023-04-03T09:07:30;2.63;;;2.43;;
2396;SDS011;1209;48.410;9.054;2023-04-03T09:10:01;3.38;;;3.08;;
2396;SDS011;1209;48.410;9.054;2023-04-03T09:12:31;3.28;;;2.97;;
2396;SDS011;1209;48.410;9.054;2023-04-03T09:17:36;5.03;;;2.17;;
2396;SDS011;1209;48.410;9.054;2023-04-03T09:20:41;3.05;;;2.08;;
2396;SDS011;1209;48.410;9.054;2023-04-03T09:23:16;2.88;;;2.60;;
2396;SDS011;1209;48.410;9.054;2023-04-03T09:25:54;2.88;;;2.55;;
2396;SDS011;1209;48.410;9.054;2023-04-03T09:28:25;3.13;;;2.38;;
2396;SDS011;1209;48.410;9.054;2023-04-03T09:30:52;2.65;;;2.50;;
2396;SDS011;1209;48.410;9.054;2023-04-03T09:33:17;5.23;;;2.87;;
2396;SDS011;1209;48.410;9.054;2023-04-03T09:35:45;4.55;;;2.53;;
2396;SDS011;1209;48.410;9.054;2023-04-03T09:40:42;3.20;;;3.00;;
2396;SDS011;1209;48.410;9.054;2023-04-03T09:43:22;6.55;;;3.50;;
2396;SDS011;1209;48.410;9.054;2023-04-03T09:45:52;3.95;;;3.55;;
2396;SDS011;1209;48.410;9.054;2023-04-03T09:48:22;3.67;;;3.15;;
2396;SDS011;1209;48.410;9.054;2023-04-03T09:55:59;7.93;;;2.67;;
2396;SDS011;1209;48.410;9.054;2023-04-03T09:58:38;3.35;;;3.00;;
2396;SDS011;1209;48.410;9.054;2023-04-03T10:01:09;3.55;;;3.25;;
2396;SDS011;1209;48.410;9.054;2023-04-03T10:06:38;4.20;;;3.80;;
2396;SDS011;1209;48.410;9.054;2023-04-03T10:09:25;8.40;;;2.92;;
2396;SDS011;1209;48.410;9.054;2023-04-03T10:12:05;3.40;;;3.10;;
2396;SDS011;1209;48.410;9.054;2023-04-03T10:14:34;3.42;;;3.22;;
2396;SDS011;1209;48.410;9.054;2023-04-03T10:19:36;4.07;;;2.88;;
2396;SDS011;1209;48.410;9.054;2023-04-03T10:22:15;5.70;;;3.25;;
2396;SDS011;1209;48.410;9.054;2023-04-03T10:25:01;3.00;;;2.70;;
2396;SDS011;1209;48.410;9.054;2023-04-03T10:27:53;3.72;;;2.83;;
2396;SDS011;1209;48.410;9.054;2023-04-03T10:30:33;2.47;;;2.28;;
2396;SDS011;1209;48.410;9.054;2023-04-03T10:36:01;3.45;;;3.25;;
2396;SDS011;1209;48.410;9.054;2023-04-03T10:43:59;4.50;;;4.10;;
2396;SDS011;1209;48.410;9.054;2023-04-03T10:46:51;3.40;;;3.10;;
2396;SDS011;1209;48.410;9.054;2023-04-03T10:52:28;5.18;;;3.67;;
2396;SDS011;1209;48.410;9.054;2023-04-03T10:58:02;3.08;;;2.78;;
2396;SDS011;1209;48.410;9.054;2023-04-03T11:00:34;5.25;;;4.05;;
2396;SDS011;1209;48.410;9.054;2023-04-03T11:03:16;5.72;;;4.05;;
2396;SDS011;1209;48.410;9.054;2023-04-03T11:05:54;9.63;;;5.45;;
2396;SDS011;1209;48.410;9.054;2023-04-03T11:08:26;6.73;;;3.20;;
2396;SDS011;1209;48.410;9.054;2023-04-03T11:10:52;3.92;;;3.63;;
2396;SDS011;1209;48.410;9.054;2023-04-03T11:13:26;3.13;;;2.83;;
2396;SDS011;1209;48.410;9.054;2023-04-03T11:15:52;3.67;;;3.10;;
2396;SDS011;1209;48.410;9.054;2023-04-03T11:21:12;4.25;;;3.58;;
2396;SDS011;1209;48.410;9.054;2023-04-03T11:23:43;3.80;;;3.28;;
2396;SDS011;1209;48.410;9.054;2023-04-03T11:26:14;5.75;;;3.00;;
2396;SDS011;1209;48.410;9.054;2023-04-03T11:28:42;2.85;;;2.53;;
2396;SDS011;1209;48.410;9.054;2023-04-03T11:33:51;2.70;;;2.50;;
2396;SDS011;1209;48.410;9.054;2023-04-03T11:36:29;2.85;;;2.63;;
2396;SDS011;1209;48.410;9.054;2023-04-03T11:38:58;2.90;;;2.58;;
2396;SDS011;1209;48.410;9.054;2023-04-03T11:41:35;2.70;;;2.50;;
2396;SDS011;1209;48.410;9.054;2023-04-03T11:44:05;3.87;;;3.03;;
2396;SDS011;1209;48.410;9.054;2023-04-03T11:46:58;3.28;;;2.95;;
2396;SDS011;1209;48.410;9.054;2023-04-03T12:05:54;2.80;;;2.60;;
2396;SDS011;1209;48.410;9.054;2023-04-03T12:37:56;2.85;;;2.65;;
2396;SDS011;1209;48.410;9.054;2023-04-03T12:48:46;4.67;;;2.50;;
2396;SDS011;1209;48.410;9.054;2023-04-03T12:51:20;4.93;;;2.80;;
2396;SDS011;1209;48.410;9.054;2023-04-03T12:54:03;6.70;;;3.28;;
2396;SDS011;1209;48.410;9.054;2023-04-03T12:56:38;2.67;;;2.50;;
2396;SDS011;1209;48.410;9.054;2023-04-03T13:01:55;10.00;;;3.15;;
2396;SDS011;1209;48.410;9.054;2023-04-03T13:04:26;3.70;;;2.60;;
2396;SDS011;1209;48.410;9.054;2023-04-03T13:06:53;3.45;;;3.10;;
2396;SDS011;1209;48.410;9.054;2023-04-03T13:09:37;4.03;;;3.33;;
2396;SDS011;1209;48.410;9.054;2023-04-03T13:12:03;4.05;;;2.50;;
2396;SDS011;1209;48.410;9.054;2023-04-03T13:14:36;4.55;;;2.88;;
2396;SDS011;1209;48.410;9.054;2023-04-03T13:17:15;8.40;;;2.80;;
2396;SDS011;1209;48.410;9.054;2023-04-03T13:19:41;4.53;;;3.80;;
2396;SDS011;1209;48.410;9.054;2023-04-03T13:22:11;2.85;;;2.30;;
2396;SDS011;1209;48.410;9.054;2023-04-03T13:24:43;6.57;;;4.05;;
2396;SDS011;1209;48.410;9.054;2023-04-03T13:27:11;3.72;;;3.10;;
2396;SDS011;1209;48.410;9.054;2023-04-03T13:29:38;2.72;;;2.53;;
2396;SDS011;1209;48.410;9.054;2023-04-03T13:32:05;6.88;;;4.10;;
2396;SDS011;1209;48.410;9.054;2023-04-03T13:34:49;5.70;;;4.82;;
2396;SDS011;1209;48.410;9.054;2023-04-03T13:37:22;7.07;;;3.28;;
2396;SDS011;1209;48.410;9.054;2023-04-03T13:40:00;5.60;;;3.58;;
2396;SDS011;1209;48.410;9.054;2023-04-03T13:42:37;3.28;;;2.97;;
2396;SDS011;1209;48.410;9.054;2023-04-03T13:45:19;3.00;;;2.55;;
2396;SDS011;1209;48.410;9.054;2023-04-03T13:47:52;4.35;;;3.95;;
2396;SDS011;1209;48.410;9.054;2023-04-03T13:50:31;4.50;;;3.05;;
2396;SDS011;1209;48.410;9.054;2023-04-03T13:53:00;6.10;;;3.23;;
2396;SDS011;1209;48.410;9.054;2023-04-03T13:55:29;4.50;;;3.05;;
2396;SDS011;1209;48.410;9.054;2023-04-03T13:58:16;2.25;;;2.05;;
2396;SDS011;1209;48.410;9.054;2023-04-03T14:03:40;3.38;;;2.67;;
2396;SDS011;1209;48.410;9.054;2023-04-03T14:06:30;3.72;;;3.33;;
2396;SDS011;1209;48.410;9.054;2023-04-03T14:08:55;7.33;;;4.03;;
2396;SDS011;1209;48.410;9.054;2023-04-03T14:11:24;3.97;;;3.03;;
2396;SDS011;1209;48.410;9.054;2023-04-03T14:13:53;3.38;;;2.88;;
2396;SDS011;1209;48.410;9.054;2023-04-03T14:16:23;3.72;;;3.40;;
2396;SDS011;1209;48.410;9.054;2023-04-03T14:18:52;3.78;;;2.85;;
2396;SDS011;1209;48.410;9.054;2023-04-03T14:21:18;3.30;;;3.00;;
2396;SDS011;1209;48.410;9.054;2023-04-03T14:23:45;3.28;;;2.92;;
2396;SDS011;1209;48.410;9.054;2023-04-03T14:26:15;4.88;;;3.90;;
2396;SDS011;1209;48.410;9.054;2023-04-03T14:28:43;7.47;;;5.07;;
2396;SDS011;1209;48.410;9.054;2023-04-03T14:31:13;4.70;;;3.50;;
2396;SDS011;1209;48.410;9.054;2023-04-03T14:33:41;7.30;;;4.18;;
2396;SDS011;1209;48.410;9.054;2023-04-03T14:36:17;7.93;;;3.70;;
2396;SDS011;1209;48.410;9.054;2023-04-03T14:38:46;10.80;;;6.50;;
2396;SDS011;1209;48.410;9.054;2023-04-03T14:41:12;6.67;;;4.73;;
2396;SDS011;1209;48.410;9.054;2023-04-03T14:43:39;7.95;;;4.38;;
2396;SDS011;1209;48.410;9.054;2023-04-03T14:46:04;10.47;;;5.17;;
2396;SDS011;1209;48.410;9.054;2023-04-03T14:48:36;16.60;;;7.30;;
2396;SDS011;1209;48.410;9.054;2023-04-03T14:51:01;18.93;;;10.80;;
2396;SDS011;1209;48.410;9.054;2023-04-03T14:53:26;9.70;;;5.80;;
2396;SDS011;1209;48.410;9.054;2023-04-03T14:55:54;23.73;;;8.30;;
2396;SDS011;1209;48.410;9.054;2023-04-03T14:58:20;21.33;;;8.60;;
2396;SDS011;1209;48.410;9.054;2023-04-03T15:00:46;15.40;;;7.30;;
2396;SDS011;1209;48.410;9.054;2023-04-03T15:03:13;2.90;;;2.50;;
2396;SDS011;1209;48.410;9.054;2023-04-03T15:05:43;2.38;;;2.28;;
2396;SDS011;1209;48.410;9.054;2023-04-03T15:08:13;2.90;;;2.60;;
2396;SDS011;1209;48.410;9.054;2023-04-03T15:10:44;3.03;;;2.65;;
2396;SDS011;1209;48.410;9.054;2023-04-03T15:13:10;5.03;;;2.80;;
2396;SDS011;1209;48.410;9.054;2023-04-03T15:15:36;3.13;;;2.90;;
2396;SDS011;1209;48.410;9.054;2023-04-03T15:18:02;2.67;;;2.47;;
2396;SDS011;1209;48.410;9.054;2023-04-03T15:20:28;3.47;;;3.07;;
2396;SDS011;1209;48.410;9.054;2023-04-03T15:22:55;3.17;;;2.83;;
2396;SDS011;1209;48.410;9.054;2023-04-03T15:25:26;2.65;;;2.45;;
2396;SDS011;1209;48.410;9.054;2023-04-03T15:27:52;4.90;;;3.10;;
2396;SDS011;1209;48.410;9.054;2023-04-03T15:30:19;2.53;;;2.03;;
2396;SDS011;1209;48.410;9.054;2023-04-03T15:32:45;5.10;;;2.60;;
2396;SDS011;1209;48.410;9.054;2023-04-03T15:35:11;2.63;;;1.93;;
2396;SDS011;1209;48.410;9.054;2023-04-03T15:37:36;3.23;;;2.67;;
2396;SDS011;1209;48.410;9.054;2023-04-03T15:40:02;2.40;;;2.07;;
2396;SDS011;1209;48.410;9.054;2023-04-03T15:42:28;4.28;;;3.60;;
2396;SDS011;1209;48.410;9.054;2023-04-03T15:44:53;3.67;;;2.60;;
2396;SDS011;1209;48.410;9.054;2023-04-03T15:47:19;2.97;;;2.70;;
2396;SDS011;1209;48.410;9.054;2023-04-03T15:49:44;8.00;;;3.20;;
2396;SDS011;1209;48.410;9.054;2023-04-03T15:52:10;3.40;;;2.90;;
2396;SDS011;1209;48.410;9.054;2023-04-03T15:54:35;3.07;;;2.83;;
2396;SDS011;1209;48.410;9.054;2023-04-03T15:57:00;3.00;;;2.70;;
2396;SDS011;1209;48.410;9.054;2023-04-03T15:59:26;4.97;;;2.80;;
2396;SDS011;1209;48.410;9.054;2023-04-03T16:01:51;4.00;;;3.03;;
2396;SDS011;1209;48.410;9.054;2023-04-03T16:04:17;3.43;;;3.00;;
2396;SDS011;1209;48.410;9.054;2023-04-03T16:06:43;3.80;;;3.50;;
2396;SDS011;1209;48.410;9.054;2023-04-03T16:09:08;3.90;;;3.33;;
2396;SDS011;1209;48.410;9.054;2023-04-03T16:11:34;8.80;;;4.53;;
2396;SDS011;1209;48.410;9.054;2023-04-03T16:14:00;12.65;;;6.78;;
2396;SDS011;1209;48.410;9.054;2023-04-03T16:16:26;12.47;;;6.60;;
2396;SDS011;1209;48.410;9.054;2023-04-03T16:18:53;7.43;;;4.03;;
2396;SDS011;1209;48.410;9.054;2023-04-03T16:21:20;6.00;;;5.07;;
2396;SDS011;1209;48.410;9.054;2023-04-03T16:23:45;20.47;;;11.00;;
2396;SDS011;1209;48.410;9.054;2023-04-03T16:26:11;10.47;;;6.50;;
2396;SDS011;1209;48.410;9.054;2023-04-03T16:28:36;5.60;;;4.13;;
2396;SDS011;1209;48.410;9.054;2023-04-03T16:31:02;4.20;;;2.50;;
2396;SDS011;1209;48.410;9.054;2023-04-03T16:33:27;3.43;;;3.03;;
2396;SDS011;1209;48.410;9.054;2023-04-03T16:35:54;3.13;;;2.80;;
2396;SDS011;1209;48.410;9.054;2023-04-03T16:38:20;2.30;;;2.10;;
2396;SDS011;1209;48.410;9.054;2023-04-03T16:40:47;2.73;;;2.53;;
2396;SDS011;1209;48.410;9.054;2023-04-03T16:43:13;4.20;;;2.63;;
2396;SDS011;1209;48.410;9.054;2023-04-03T16:45:39;2.85;;;2.50;;
2396;SDS011;1209;48.410;9.054;2023-04-03T16:48:05;2.43;;;2.17;;
2396;SDS011;1209;48.410;9.054;2023-04-03T16:50:31;5.60;;;3.20;;
2396;SDS011;1209;48.410;9.054;2023-04-03T16:52:56;4.63;;;2.77;;
2396;SDS011;1209;48.410;9.054;2023-04-03T16:55:21;3.90;;;2.90;;
2396;SDS011;1209;48.410;9.054;2023-04-03T16:57:47;2.23;;;2.13;;
2396;SDS011;1209;48.410;9.054;2023-04-03T17:00:12;3.23;;;2.90;;
2396;SDS011;1209;48.410;9.054;2023-04-03T17:02:39;3.60;;;3.33;;
2396;SDS011;1209;48.410;9.054;2023-04-03T17:05:05;2.83;;;2.63;;
2396;SDS011;1209;48.410;9.054;2023-04-03T17:07:31;4.63;;;2.95;;
2396;SDS011;1209;48.410;9.054;2023-04-03T17:09:57;2.33;;;2.07;;
2396;SDS011;1209;48.410;9.054;2023-04-03T17:12:22;2.70;;;2.40;;
2396;SDS011;1209;48.410;9.054;2023-04-03T17:14:48;5.90;;;3.93;;